sensor_id;sensor_type;location;lat;lon;timestamp;temperature;humidity
24207;DHT22;12351;52.284;9.160;2022-12-13T00:01:12;-4.00;99.90
24207;DHT22;12351;52.284;9.160;2022-12-13T00:04:01;-4.00;99.90
24207;DHT22;12351;52.284;9.160;2022-12-13T00:06:49;-4.00;99.90
24207;DHT22;12351;52.284;9.160;2022-12-13T00:09:35;-4.00;99.90
24207;DHT22;12351;52.284;9.160;2022-12-13T00:12:22;-4.00;99.90
24207;DHT22;12351;52.284;9.160;2022-12-13T00:15:08;-4.00;99.90
24207;DHT22;12351;52.284;9.160;2022-12-13T00:17:55;-3.90;99.90
24207;DHT22;12351;52.284;9.160;2022-12-13T00:20:41;-3.90;99.90
24207;DHT22;12351;52.284;9.160;2022-12-13T00:23:28;-3.90;99.90
24207;DHT22;12351;52.284;9.160;2022-12-13T00:26:16;-3.90;99.90
24207;DHT22;12351;52.284;9.160;2022-12-13T00:29:05;-3.90;99.90
24207;DHT22;12351;52.284;9.160;2022-12-13T00:31:52;-3.90;99.90
24207;DHT22;12351;52.284;9.160;2022-12-13T00:34:39;-3.80;99.90
24207;DHT22;12351;52.284;9.160;2022-12-13T00:37:25;-3.90;99.90
24207;DHT22;12351;52.284;9.160;2022-12-13T00:40:11;-3.90;99.90
24207;DHT22;12351;52.284;9.160;2022-12-13T00:42:58;-4.00;99.90
24207;DHT22;12351;52.284;9.160;2022-12-13T00:45:44;-4.00;99.90
24207;DHT22;12351;52.284;9.160;2022-12-13T00:48:31;-4.00;99.90
24207;DHT22;12351;52.284;9.160;2022-12-13T00:51:19;-4.00;99.90
24207;DHT22;12351;52.284;9.160;2022-12-13T00:54:06;-4.00;99.90
24207;DHT22;12351;52.284;9.160;2022-12-13T00:56:52;-4.00;99.90
24207;DHT22;12351;52.284;9.160;2022-12-13T00:59:39;-3.90;99.90
24207;DHT22;12351;52.284;9.160;2022-12-13T01:02:26;-3.90;99.90
24207;DHT22;12351;52.284;9.160;2022-12-13T01:05:13;-3.90;99.90
24207;DHT22;12351;52.284;9.160;2022-12-13T01:07:59;-3.90;99.90
24207;DHT22;12351;52.284;9.160;2022-12-13T01:10:47;-3.90;99.90
24207;DHT22;12351;52.284;9.160;2022-12-13T01:13:34;-3.80;99.90
24207;DHT22;12351;52.284;9.160;2022-12-13T01:16:20;-3.80;99.90
24207;DHT22;12351;52.284;9.160;2022-12-13T01:19:07;-3.90;99.90
24207;DHT22;12351;52.284;9.160;2022-12-13T01:21:55;-3.90;99.90
24207;DHT22;12351;52.284;9.160;2022-12-13T01:24:41;-3.90;99.90
24207;DHT22;12351;52.284;9.160;2022-12-13T01:27:28;-3.90;99.90
24207;DHT22;12351;52.284;9.160;2022-12-13T01:30:14;-3.90;99.90
24207;DHT22;12351;52.284;9.160;2022-12-13T01:33:01;-3.80;99.90
24207;DHT22;12351;52.284;9.160;2022-12-13T01:35:47;-3.80;99.90
24207;DHT22;12351;52.284;9.160;2022-12-13T01:38:34;-3.90;99.90
24207;DHT22;12351;52.284;9.160;2022-12-13T01:41:21;-3.90;99.90
24207;DHT22;12351;52.284;9.160;2022-12-13T01:46:56;-3.80;99.90
24207;DHT22;12351;52.284;9.160;2022-12-13T01:49:43;-3.80;99.90
24207;DHT22;12351;52.284;9.160;2022-12-13T01:52:32;-3.70;99.90
24207;DHT22;12351;52.284;9.160;2022-12-13T01:55:20;-3.70;99.90
24207;DHT22;12351;52.284;9.160;2022-12-13T01:58:07;-3.80;99.90
24207;DHT22;12351;52.284;9.160;2022-12-13T02:00:54;-3.80;99.90
24207;DHT22;12351;52.284;9.160;2022-12-13T02:03:42;-3.80;99.90
24207;DHT22;12351;52.284;9.160;2022-12-13T02:09:18;-3.80;99.90
24207;DHT22;12351;52.284;9.160;2022-12-13T02:12:05;-3.80;99.90
24207;DHT22;12351;52.284;9.160;2022-12-13T02:14:52;-3.80;99.90
24207;DHT22;12351;52.284;9.160;2022-12-13T02:40:04;-4.10;99.90
24207;DHT22;12351;52.284;9.160;2022-12-13T02:45:46;-4.20;99.90
24207;DHT22;12351;52.284;9.160;2022-12-13T02:51:24;-4.20;99.90
24207;DHT22;12351;52.284;9.160;2022-12-13T02:54:15;-4.30;99.90
24207;DHT22;12351;52.284;9.160;2022-12-13T02:57:02;-4.40;99.90
24207;DHT22;12351;52.284;9.160;2022-12-13T02:59:49;-4.30;99.90
24207;DHT22;12351;52.284;9.160;2022-12-13T03:05:31;-4.40;99.90
24207;DHT22;12351;52.284;9.160;2022-12-13T03:13:49;-4.50;99.90
24207;DHT22;12351;52.284;9.160;2022-12-13T03:16:40;-4.50;99.90
24207;DHT22;12351;52.284;9.160;2022-12-13T03:19:27;-4.60;99.90
24207;DHT22;12351;52.284;9.160;2022-12-13T03:22:14;-4.60;99.90
24207;DHT22;12351;52.284;9.160;2022-12-13T03:25:01;-4.60;99.90
24207;DHT22;12351;52.284;9.160;2022-12-13T03:27:48;-4.60;99.90
24207;DHT22;12351;52.284;9.160;2022-12-13T03:30:35;-4.60;99.90
24207;DHT22;12351;52.284;9.160;2022-12-13T03:33:22;-4.60;99.90
24207;DHT22;12351;52.284;9.160;2022-12-13T03:36:11;-4.60;99.90
24207;DHT22;12351;52.284;9.160;2022-12-13T03:38:58;-4.60;99.90
24207;DHT22;12351;52.284;9.160;2022-12-13T03:41:45;-4.50;99.90
24207;DHT22;12351;52.284;9.160;2022-12-13T03:44:31;-4.60;99.90
24207;DHT22;12351;52.284;9.160;2022-12-13T03:47:18;-4.50;99.90
24207;DHT22;12351;52.284;9.160;2022-12-13T03:50:05;-4.50;99.90
24207;DHT22;12351;52.284;9.160;2022-12-13T03:55:42;-4.40;99.90
24207;DHT22;12351;52.284;9.160;2022-12-13T03:58:29;-4.30;99.90
24207;DHT22;12351;52.284;9.160;2022-12-13T04:01:16;-4.30;99.90
24207;DHT22;12351;52.284;9.160;2022-12-13T04:04:03;-4.30;99.90
24207;DHT22;12351;52.284;9.160;2022-12-13T04:06:50;-4.30;99.90
24207;DHT22;12351;52.284;9.160;2022-12-13T04:09:37;-4.20;99.90
24207;DHT22;12351;52.284;9.160;2022-12-13T04:12:23;-4.20;99.90
24207;DHT22;12351;52.284;9.160;2022-12-13T04:15:11;-4.30;99.90
24207;DHT22;12351;52.284;9.160;2022-12-13T04:17:57;-4.30;99.90
24207;DHT22;12351;52.284;9.160;2022-12-13T04:20:44;-4.30;99.90
24207;DHT22;12351;52.284;9.160;2022-12-13T04:23:31;-4.30;99.90
24207;DHT22;12351;52.284;9.160;2022-12-13T04:26:18;-4.20;99.90
24207;DHT22;12351;52.284;9.160;2022-12-13T04:29:04;-4.20;99.90
24207;DHT22;12351;52.284;9.160;2022-12-13T04:31:51;-4.20;99.90
24207;DHT22;12351;52.284;9.160;2022-12-13T04:34:38;-4.20;99.90
24207;DHT22;12351;52.284;9.160;2022-12-13T04:37:25;-4.10;99.90
24207;DHT22;12351;52.284;9.160;2022-12-13T04:40:12;-4.20;99.90
24207;DHT22;12351;52.284;9.160;2022-12-13T04:42:58;-4.20;99.90
24207;DHT22;12351;52.284;9.160;2022-12-13T04:45:45;-4.20;99.90
24207;DHT22;12351;52.284;9.160;2022-12-13T04:48:32;-4.30;99.90
24207;DHT22;12351;52.284;9.160;2022-12-13T04:51:19;-4.20;99.90
24207;DHT22;12351;52.284;9.160;2022-12-13T04:54:05;-4.30;99.90
24207;DHT22;12351;52.284;9.160;2022-12-13T04:56:52;-4.30;99.90
24207;DHT22;12351;52.284;9.160;2022-12-13T04:59:39;-4.30;99.90
24207;DHT22;12351;52.284;9.160;2022-12-13T05:02:25;-4.30;99.90
24207;DHT22;12351;52.284;9.160;2022-12-13T05:05:12;-4.30;99.90
24207;DHT22;12351;52.284;9.160;2022-12-13T05:07:59;-4.40;99.90
24207;DHT22;12351;52.284;9.160;2022-12-13T05:10:45;-4.30;99.90
24207;DHT22;12351;52.284;9.160;2022-12-13T05:13:32;-4.30;99.90
24207;DHT22;12351;52.284;9.160;2022-12-13T05:16:19;-4.30;99.90
24207;DHT22;12351;52.284;9.160;2022-12-13T05:19:05;-4.30;99.90
24207;DHT22;12351;52.284;9.160;2022-12-13T05:21:52;-4.30;99.90
24207;DHT22;12351;52.284;9.160;2022-12-13T05:24:38;-4.30;99.90
24207;DHT22;12351;52.284;9.160;2022-12-13T05:27:25;-4.40;99.90
24207;DHT22;12351;52.284;9.160;2022-12-13T05:30:12;-4.40;99.90
24207;DHT22;12351;52.284;9.160;2022-12-13T05:32:58;-4.40;99.90
24207;DHT22;12351;52.284;9.160;2022-12-13T05:35:45;-4.30;99.90
24207;DHT22;12351;52.284;9.160;2022-12-13T05:38:32;-4.30;99.90
24207;DHT22;12351;52.284;9.160;2022-12-13T05:41:21;-4.30;99.90
24207;DHT22;12351;52.284;9.160;2022-12-13T05:44:08;-4.20;99.90
24207;DHT22;12351;52.284;9.160;2022-12-13T05:46:56;-4.20;99.90
24207;DHT22;12351;52.284;9.160;2022-12-13T05:49:43;-4.20;99.90
24207;DHT22;12351;52.284;9.160;2022-12-13T05:52:30;-4.20;99.90
24207;DHT22;12351;52.284;9.160;2022-12-13T05:55:16;-4.20;99.90
24207;DHT22;12351;52.284;9.160;2022-12-13T05:58:03;-4.20;99.90
24207;DHT22;12351;52.284;9.160;2022-12-13T06:00:50;-4.20;99.90
24207;DHT22;12351;52.284;9.160;2022-12-13T06:03:37;-4.20;99.90
24207;DHT22;12351;52.284;9.160;2022-12-13T06:06:24;-4.20;99.90
24207;DHT22;12351;52.284;9.160;2022-12-13T06:09:10;-4.30;99.90
24207;DHT22;12351;52.284;9.160;2022-12-13T06:11:57;-4.40;99.90
24207;DHT22;12351;52.284;9.160;2022-12-13T06:14:44;-4.40;99.90
24207;DHT22;12351;52.284;9.160;2022-12-13T06:17:32;-4.50;99.90
24207;DHT22;12351;52.284;9.160;2022-12-13T06:20:19;-4.50;99.90
24207;DHT22;12351;52.284;9.160;2022-12-13T06:23:05;-4.60;99.90
24207;DHT22;12351;52.284;9.160;2022-12-13T06:25:52;-4.60;99.90
24207;DHT22;12351;52.284;9.160;2022-12-13T06:28:39;-4.60;99.90
24207;DHT22;12351;52.284;9.160;2022-12-13T06:31:25;-4.50;99.90
24207;DHT22;12351;52.284;9.160;2022-12-13T06:34:11;-4.40;99.90
24207;DHT22;12351;52.284;9.160;2022-12-13T06:36:58;-4.40;99.90
24207;DHT22;12351;52.284;9.160;2022-12-13T06:39:45;-4.30;99.90
24207;DHT22;12351;52.284;9.160;2022-12-13T06:42:32;-4.40;99.90
24207;DHT22;12351;52.284;9.160;2022-12-13T06:45:18;-4.30;99.90
24207;DHT22;12351;52.284;9.160;2022-12-13T06:48:05;-4.30;99.90
24207;DHT22;12351;52.284;9.160;2022-12-13T06:50:52;-4.30;99.90
24207;DHT22;12351;52.284;9.160;2022-12-13T06:53:39;-4.20;99.90
24207;DHT22;12351;52.284;9.160;2022-12-13T06:56:26;-4.20;99.90
24207;DHT22;12351;52.284;9.160;2022-12-13T06:59:14;-4.20;99.90
24207;DHT22;12351;52.284;9.160;2022-12-13T07:02:00;-4.20;99.90
24207;DHT22;12351;52.284;9.160;2022-12-13T07:04:47;-4.20;99.90
24207;DHT22;12351;52.284;9.160;2022-12-13T07:07:34;-4.20;99.90
24207;DHT22;12351;52.284;9.160;2022-12-13T07:10:20;-4.20;99.90
24207;DHT22;12351;52.284;9.160;2022-12-13T07:13:07;-4.20;99.90
24207;DHT22;12351;52.284;9.160;2022-12-13T07:15:54;-4.10;99.90
24207;DHT22;12351;52.284;9.160;2022-12-13T07:18:40;-4.10;99.90
24207;DHT22;12351;52.284;9.160;2022-12-13T07:21:28;-4.10;99.90
24207;DHT22;12351;52.284;9.160;2022-12-13T07:24:15;-4.10;99.90
24207;DHT22;12351;52.284;9.160;2022-12-13T07:27:02;-4.10;99.90
24207;DHT22;12351;52.284;9.160;2022-12-13T07:29:49;-4.10;99.90
24207;DHT22;12351;52.284;9.160;2022-12-13T07:32:35;-4.20;99.90
24207;DHT22;12351;52.284;9.160;2022-12-13T07:35:22;-4.30;99.90
24207;DHT22;12351;52.284;9.160;2022-12-13T07:38:10;-4.50;99.90
24207;DHT22;12351;52.284;9.160;2022-12-13T07:40:56;-4.40;99.90
24207;DHT22;12351;52.284;9.160;2022-12-13T07:43:44;-4.40;99.90
24207;DHT22;12351;52.284;9.160;2022-12-13T07:46:30;-4.50;99.90
24207;DHT22;12351;52.284;9.160;2022-12-13T07:49:17;-4.50;99.90
24207;DHT22;12351;52.284;9.160;2022-12-13T07:52:03;-4.60;99.90
24207;DHT22;12351;52.284;9.160;2022-12-13T07:54:50;-4.60;99.90
24207;DHT22;12351;52.284;9.160;2022-12-13T07:57:36;-4.50;99.90
24207;DHT22;12351;52.284;9.160;2022-12-13T08:00:22;-4.50;99.90
24207;DHT22;12351;52.284;9.160;2022-12-13T08:03:09;-4.40;99.90
24207;DHT22;12351;52.284;9.160;2022-12-13T08:05:59;-4.30;99.90
24207;DHT22;12351;52.284;9.160;2022-12-13T08:08:45;-4.30;99.90
24207;DHT22;12351;52.284;9.160;2022-12-13T08:11:33;-4.30;99.90
24207;DHT22;12351;52.284;9.160;2022-12-13T08:14:20;-4.30;99.90
24207;DHT22;12351;52.284;9.160;2022-12-13T08:17:06;-4.30;99.90
24207;DHT22;12351;52.284;9.160;2022-12-13T08:19:53;-4.20;99.90
24207;DHT22;12351;52.284;9.160;2022-12-13T08:22:39;-4.20;99.90
24207;DHT22;12351;52.284;9.160;2022-12-13T08:25:26;-4.20;99.90
24207;DHT22;12351;52.284;9.160;2022-12-13T08:28:12;-4.20;99.90
24207;DHT22;12351;52.284;9.160;2022-12-13T08:31:02;-4.10;99.90
24207;DHT22;12351;52.284;9.160;2022-12-13T08:33:49;-4.10;99.90
24207;DHT22;12351;52.284;9.160;2022-12-13T08:36:35;-4.00;99.90
24207;DHT22;12351;52.284;9.160;2022-12-13T08:39:22;-4.10;99.90
24207;DHT22;12351;52.284;9.160;2022-12-13T08:42:11;-4.10;99.90
24207;DHT22;12351;52.284;9.160;2022-12-13T08:44:58;-4.10;99.90
24207;DHT22;12351;52.284;9.160;2022-12-13T08:47:45;-4.10;99.90
24207;DHT22;12351;52.284;9.160;2022-12-13T08:50:31;-4.00;99.90
24207;DHT22;12351;52.284;9.160;2022-12-13T08:53:18;-4.00;99.90
24207;DHT22;12351;52.284;9.160;2022-12-13T08:56:06;-4.00;99.90
24207;DHT22;12351;52.284;9.160;2022-12-13T08:58:54;-3.90;99.90
24207;DHT22;12351;52.284;9.160;2022-12-13T09:01:41;-3.90;99.90
24207;DHT22;12351;52.284;9.160;2022-12-13T09:04:27;-4.00;99.90
24207;DHT22;12351;52.284;9.160;2022-12-13T09:07:14;-4.00;99.90
24207;DHT22;12351;52.284;9.160;2022-12-13T09:10:01;-4.00;99.90
24207;DHT22;12351;52.284;9.160;2022-12-13T09:12:48;-3.90;99.90
24207;DHT22;12351;52.284;9.160;2022-12-13T09:15:37;-3.80;99.90
24207;DHT22;12351;52.284;9.160;2022-12-13T09:18:25;-3.70;99.90
24207;DHT22;12351;52.284;9.160;2022-12-13T09:21:13;-3.60;99.90
24207;DHT22;12351;52.284;9.160;2022-12-13T09:24:00;-3.50;99.90
24207;DHT22;12351;52.284;9.160;2022-12-13T09:26:47;-3.40;99.90
24207;DHT22;12351;52.284;9.160;2022-12-13T09:29:33;-3.40;99.90
24207;DHT22;12351;52.284;9.160;2022-12-13T09:32:20;-3.30;99.90
24207;DHT22;12351;52.284;9.160;2022-12-13T09:35:07;-3.20;99.90
24207;DHT22;12351;52.284;9.160;2022-12-13T09:37:55;-3.20;99.90
24207;DHT22;12351;52.284;9.160;2022-12-13T09:40:44;-3.20;99.90
24207;DHT22;12351;52.284;9.160;2022-12-13T09:43:33;-3.20;99.90
24207;DHT22;12351;52.284;9.160;2022-12-13T09:46:22;-3.20;99.90
24207;DHT22;12351;52.284;9.160;2022-12-13T09:49:12;-3.20;99.90
24207;DHT22;12351;52.284;9.160;2022-12-13T09:52:00;-3.20;99.90
24207;DHT22;12351;52.284;9.160;2022-12-13T09:54:48;-2.90;99.90
24207;DHT22;12351;52.284;9.160;2022-12-13T09:57:36;-2.90;99.90
24207;DHT22;12351;52.284;9.160;2022-12-13T10:00:24;-2.80;99.90
24207;DHT22;12351;52.284;9.160;2022-12-13T10:03:13;-2.70;99.90
24207;DHT22;12351;52.284;9.160;2022-12-13T10:08:52;-2.60;99.90
24207;DHT22;12351;52.284;9.160;2022-12-13T10:14:33;-2.70;99.90
24207;DHT22;12351;52.284;9.160;2022-12-13T10:17:22;-3.00;99.90
24207;DHT22;12351;52.284;9.160;2022-12-13T10:23:04;-3.00;99.90
24207;DHT22;12351;52.284;9.160;2022-12-13T10:25:53;-3.00;99.90
24207;DHT22;12351;52.284;9.160;2022-12-13T10:28:39;-2.90;99.90
24207;DHT22;12351;52.284;9.160;2022-12-13T10:31:27;-3.00;99.90
24207;DHT22;12351;52.284;9.160;2022-12-13T10:34:19;-3.00;99.90
24207;DHT22;12351;52.284;9.160;2022-12-13T10:39:53;-2.80;99.90
24207;DHT22;12351;52.284;9.160;2022-12-13T10:42:39;-2.60;99.90
24207;DHT22;12351;52.284;9.160;2022-12-13T10:45:26;-2.50;99.90
24207;DHT22;12351;52.284;9.160;2022-12-13T10:56:33;-2.70;99.90
24207;DHT22;12351;52.284;9.160;2022-12-13T11:07:50;-2.60;99.90
24207;DHT22;12351;52.284;9.160;2022-12-13T11:10:37;-2.50;99.90
24207;DHT22;12351;52.284;9.160;2022-12-13T11:13:28;-2.50;99.90
24207;DHT22;12351;52.284;9.160;2022-12-13T11:19:05;-2.40;99.90
24207;DHT22;12351;52.284;9.160;2022-12-13T11:21:53;-2.40;99.90
24207;DHT22;12351;52.284;9.160;2022-12-13T11:24:40;-2.20;99.90
24207;DHT22;12351;52.284;9.160;2022-12-13T11:30:10;-2.10;99.90
24207;DHT22;12351;52.284;9.160;2022-12-13T11:33:02;-2.00;99.90
24207;DHT22;12351;52.284;9.160;2022-12-13T11:41:21;-1.80;99.90
24207;DHT22;12351;52.284;9.160;2022-12-13T11:46:58;-1.60;99.90
24207;DHT22;12351;52.284;9.160;2022-12-13T11:49:47;-1.50;99.90
24207;DHT22;12351;52.284;9.160;2022-12-13T11:52:38;-1.70;99.90
24207;DHT22;12351;52.284;9.160;2022-12-13T11:55:31;-1.70;99.90
24207;DHT22;12351;52.284;9.160;2022-12-13T11:58:19;-1.70;99.90
24207;DHT22;12351;52.284;9.160;2022-12-13T12:01:08;-1.70;99.90
24207;DHT22;12351;52.284;9.160;2022-12-13T12:03:58;-1.60;99.90
24207;DHT22;12351;52.284;9.160;2022-12-13T12:06:47;-1.50;99.90
24207;DHT22;12351;52.284;9.160;2022-12-13T12:09:34;-1.60;99.90
24207;DHT22;12351;52.284;9.160;2022-12-13T12:12:29;-1.60;99.90
24207;DHT22;12351;52.284;9.160;2022-12-13T12:15:15;-1.60;99.90
24207;DHT22;12351;52.284;9.160;2022-12-13T12:18:02;-1.50;99.90
24207;DHT22;12351;52.284;9.160;2022-12-13T12:23:39;-1.40;99.90
24207;DHT22;12351;52.284;9.160;2022-12-13T12:26:25;-1.40;99.90
24207;DHT22;12351;52.284;9.160;2022-12-13T12:37:48;-1.10;99.90
24207;DHT22;12351;52.284;9.160;2022-12-13T12:54:25;-0.80;99.90
24207;DHT22;12351;52.284;9.160;2022-12-13T13:11:16;-0.90;99.90
24207;DHT22;12351;52.284;9.160;2022-12-13T13:14:24;-0.90;99.90
24207;DHT22;12351;52.284;9.160;2022-12-13T13:16:53;-0.90;99.90
24207;DHT22;12351;52.284;9.160;2022-12-13T13:22:32;-1.00;99.90
24207;DHT22;12351;52.284;9.160;2022-12-13T13:28:14;-0.90;99.90
24207;DHT22;12351;52.284;9.160;2022-12-13T13:33:53;-0.90;99.90
24207;DHT22;12351;52.284;9.160;2022-12-13T13:47:45;-0.90;99.90
24207;DHT22;12351;52.284;9.160;2022-12-13T14:07:18;-1.10;99.90
24207;DHT22;12351;52.284;9.160;2022-12-13T14:10:04;-1.10;99.90
24207;DHT22;12351;52.284;9.160;2022-12-13T14:21:15;-1.30;99.90
24207;DHT22;12351;52.284;9.160;2022-12-13T14:29:43;-1.50;99.90
24207;DHT22;12351;52.284;9.160;2022-12-13T14:32:32;-1.60;99.90
24207;DHT22;12351;52.284;9.160;2022-12-13T14:35:24;-1.70;99.90
24207;DHT22;12351;52.284;9.160;2022-12-13T14:38:16;-1.80;99.90
24207;DHT22;12351;52.284;9.160;2022-12-13T14:41:01;-1.80;99.90
24207;DHT22;12351;52.284;9.160;2022-12-13T14:43:48;-1.90;99.90
24207;DHT22;12351;52.284;9.160;2022-12-13T14:46:35;-2.00;99.90
24207;DHT22;12351;52.284;9.160;2022-12-13T14:49:23;-2.10;99.90
24207;DHT22;12351;52.284;9.160;2022-12-13T14:52:15;-2.20;99.90
24207;DHT22;12351;52.284;9.160;2022-12-13T14:55:02;-2.30;99.90
24207;DHT22;12351;52.284;9.160;2022-12-13T14:57:52;-2.40;99.90
24207;DHT22;12351;52.284;9.160;2022-12-13T15:00:39;-2.50;99.90
24207;DHT22;12351;52.284;9.160;2022-12-13T15:03:27;-2.50;99.90
24207;DHT22;12351;52.284;9.160;2022-12-13T15:06:13;-2.60;99.90
24207;DHT22;12351;52.284;9.160;2022-12-13T15:09:00;-2.60;99.90
24207;DHT22;12351;52.284;9.160;2022-12-13T15:11:47;-2.70;99.90
24207;DHT22;12351;52.284;9.160;2022-12-13T15:14:37;-2.90;99.90
24207;DHT22;12351;52.284;9.160;2022-12-13T15:20:21;-3.00;99.90
24207;DHT22;12351;52.284;9.160;2022-12-13T15:26:01;-3.10;99.90
24207;DHT22;12351;52.284;9.160;2022-12-13T15:28:53;-3.10;99.90
24207;DHT22;12351;52.284;9.160;2022-12-13T15:31:41;-3.20;99.90
24207;DHT22;12351;52.284;9.160;2022-12-13T15:34:35;-3.20;99.90
24207;DHT22;12351;52.284;9.160;2022-12-13T15:37:28;-3.30;99.90
24207;DHT22;12351;52.284;9.160;2022-12-13T15:40:16;-3.30;99.90
24207;DHT22;12351;52.284;9.160;2022-12-13T15:43:12;-3.40;99.90
24207;DHT22;12351;52.284;9.160;2022-12-13T15:45:58;-3.40;99.90
24207;DHT22;12351;52.284;9.160;2022-12-13T15:48:50;-3.50;99.90
24207;DHT22;12351;52.284;9.160;2022-12-13T15:54:30;-3.50;99.90
24207;DHT22;12351;52.284;9.160;2022-12-13T15:57:22;-3.50;99.90
24207;DHT22;12351;52.284;9.160;2022-12-13T16:00:18;-3.50;99.90
24207;DHT22;12351;52.284;9.160;2022-12-13T16:03:05;-3.20;99.90
24207;DHT22;12351;52.284;9.160;2022-12-13T16:05:56;-3.20;99.90
24207;DHT22;12351;52.284;9.160;2022-12-13T16:08:49;-3.30;99.90
24207;DHT22;12351;52.284;9.160;2022-12-13T16:11:40;-3.50;99.90
24207;DHT22;12351;52.284;9.160;2022-12-13T16:20:11;-3.50;99.90
24207;DHT22;12351;52.284;9.160;2022-12-13T16:22:58;-3.60;99.90
24207;DHT22;12351;52.284;9.160;2022-12-13T16:25:45;-3.60;99.90
24207;DHT22;12351;52.284;9.160;2022-12-13T16:28:32;-3.60;99.90
24207;DHT22;12351;52.284;9.160;2022-12-13T16:31:22;-3.60;99.90
24207;DHT22;12351;52.284;9.160;2022-12-13T16:34:08;-3.60;99.90
24207;DHT22;12351;52.284;9.160;2022-12-13T16:36:54;-3.60;99.90
24207;DHT22;12351;52.284;9.160;2022-12-13T16:39:42;-3.70;99.90
24207;DHT22;12351;52.284;9.160;2022-12-13T16:42:30;-3.70;99.90
24207;DHT22;12351;52.284;9.160;2022-12-13T16:45:17;-3.80;99.90
24207;DHT22;12351;52.284;9.160;2022-12-13T16:48:04;-3.70;99.90
24207;DHT22;12351;52.284;9.160;2022-12-13T16:50:51;-3.60;99.90
24207;DHT22;12351;52.284;9.160;2022-12-13T16:53:38;-3.70;99.90
24207;DHT22;12351;52.284;9.160;2022-12-13T16:56:24;-3.80;99.90
24207;DHT22;12351;52.284;9.160;2022-12-13T16:59:13;-3.90;99.90
24207;DHT22;12351;52.284;9.160;2022-12-13T17:02:00;-4.00;99.90
24207;DHT22;12351;52.284;9.160;2022-12-13T17:04:47;-3.80;99.90
24207;DHT22;12351;52.284;9.160;2022-12-13T17:07:33;-3.90;99.90
24207;DHT22;12351;52.284;9.160;2022-12-13T17:10:20;-3.90;99.90
24207;DHT22;12351;52.284;9.160;2022-12-13T17:13:08;-3.80;99.90
24207;DHT22;12351;52.284;9.160;2022-12-13T17:15:54;-3.90;99.90
24207;DHT22;12351;52.284;9.160;2022-12-13T17:18:41;-3.90;99.90
24207;DHT22;12351;52.284;9.160;2022-12-13T17:21:27;-4.00;99.90
24207;DHT22;12351;52.284;9.160;2022-12-13T17:24:14;-4.00;99.90
24207;DHT22;12351;52.284;9.160;2022-12-13T17:27:01;-4.00;99.90
24207;DHT22;12351;52.284;9.160;2022-12-13T17:29:48;-3.90;99.90
24207;DHT22;12351;52.284;9.160;2022-12-13T17:32:35;-3.90;99.90
24207;DHT22;12351;52.284;9.160;2022-12-13T17:35:21;-3.80;99.90
24207;DHT22;12351;52.284;9.160;2022-12-13T17:38:10;-3.90;99.90
24207;DHT22;12351;52.284;9.160;2022-12-13T17:40:56;-3.80;99.90
24207;DHT22;12351;52.284;9.160;2022-12-13T17:43:43;-3.70;99.90
24207;DHT22;12351;52.284;9.160;2022-12-13T17:46:30;-3.70;99.90
24207;DHT22;12351;52.284;9.160;2022-12-13T17:49:18;-3.60;99.90
24207;DHT22;12351;52.284;9.160;2022-12-13T17:52:04;-3.60;99.90
24207;DHT22;12351;52.284;9.160;2022-12-13T17:54:51;-3.50;99.90
24207;DHT22;12351;52.284;9.160;2022-12-13T17:57:38;-3.50;99.90
24207;DHT22;12351;52.284;9.160;2022-12-13T18:00:24;-3.40;99.90
24207;DHT22;12351;52.284;9.160;2022-12-13T18:03:10;-3.40;99.90
24207;DHT22;12351;52.284;9.160;2022-12-13T18:05:58;-3.30;99.90
24207;DHT22;12351;52.284;9.160;2022-12-13T18:08:45;-3.30;99.90
24207;DHT22;12351;52.284;9.160;2022-12-13T18:11:31;-3.20;99.90
24207;DHT22;12351;52.284;9.160;2022-12-13T18:14:18;-3.20;99.90
24207;DHT22;12351;52.284;9.160;2022-12-13T18:17:05;-3.20;99.90
24207;DHT22;12351;52.284;9.160;2022-12-13T18:19:51;-3.20;99.90
24207;DHT22;12351;52.284;9.160;2022-12-13T18:22:38;-3.20;99.90
24207;DHT22;12351;52.284;9.160;2022-12-13T18:25:24;-3.30;99.90
24207;DHT22;12351;52.284;9.160;2022-12-13T18:28:11;-3.30;99.90
24207;DHT22;12351;52.284;9.160;2022-12-13T18:31:00;-3.30;99.90
24207;DHT22;12351;52.284;9.160;2022-12-13T18:33:47;-3.20;99.90
24207;DHT22;12351;52.284;9.160;2022-12-13T18:36:35;-3.10;99.90
24207;DHT22;12351;52.284;9.160;2022-12-13T18:39:21;-3.20;99.90
24207;DHT22;12351;52.284;9.160;2022-12-13T18:42:08;-3.10;99.90
24207;DHT22;12351;52.284;9.160;2022-12-13T18:44:55;-3.10;99.90
24207;DHT22;12351;52.284;9.160;2022-12-13T18:47:42;-3.00;99.90
24207;DHT22;12351;52.284;9.160;2022-12-13T18:50:28;-3.00;99.90
24207;DHT22;12351;52.284;9.160;2022-12-13T18:53:15;-3.20;99.90
24207;DHT22;12351;52.284;9.160;2022-12-13T18:56:04;-3.40;99.90
24207;DHT22;12351;52.284;9.160;2022-12-13T18:58:52;-3.50;99.90
24207;DHT22;12351;52.284;9.160;2022-12-13T19:01:38;-3.50;99.90
24207;DHT22;12351;52.284;9.160;2022-12-13T19:04:25;-3.60;99.90
24207;DHT22;12351;52.284;9.160;2022-12-13T19:07:12;-3.60;99.90
24207;DHT22;12351;52.284;9.160;2022-12-13T19:09:59;-3.70;99.90
24207;DHT22;12351;52.284;9.160;2022-12-13T19:12:45;-3.80;99.90
24207;DHT22;12351;52.284;9.160;2022-12-13T19:15:33;-3.80;99.90
24207;DHT22;12351;52.284;9.160;2022-12-13T19:18:19;-4.00;99.90
24207;DHT22;12351;52.284;9.160;2022-12-13T19:21:08;-4.00;99.90
24207;DHT22;12351;52.284;9.160;2022-12-13T19:23:57;-4.00;99.90
24207;DHT22;12351;52.284;9.160;2022-12-13T19:26:44;-4.10;99.90
24207;DHT22;12351;52.284;9.160;2022-12-13T19:29:31;-4.10;99.90
24207;DHT22;12351;52.284;9.160;2022-12-13T19:32:18;-4.10;99.90
24207;DHT22;12351;52.284;9.160;2022-12-13T19:35:05;-4.10;99.90
24207;DHT22;12351;52.284;9.160;2022-12-13T19:37:52;-4.20;99.90
24207;DHT22;12351;52.284;9.160;2022-12-13T19:40:40;-4.20;99.90
24207;DHT22;12351;52.284;9.160;2022-12-13T19:43:27;-4.10;99.90
24207;DHT22;12351;52.284;9.160;2022-12-13T19:46:14;-4.00;99.90
24207;DHT22;12351;52.284;9.160;2022-12-13T19:49:00;-4.10;99.90
24207;DHT22;12351;52.284;9.160;2022-12-13T19:51:47;-4.10;99.90
24207;DHT22;12351;52.284;9.160;2022-12-13T19:54:33;-4.10;99.90
24207;DHT22;12351;52.284;9.160;2022-12-13T19:57:20;-4.00;99.90
24207;DHT22;12351;52.284;9.160;2022-12-13T20:00:08;-4.00;99.90
24207;DHT22;12351;52.284;9.160;2022-12-13T20:02:56;-4.00;99.90
24207;DHT22;12351;52.284;9.160;2022-12-13T20:05:44;-4.00;99.90
24207;DHT22;12351;52.284;9.160;2022-12-13T20:08:30;-4.00;99.90
24207;DHT22;12351;52.284;9.160;2022-12-13T20:11:20;-4.00;99.90
24207;DHT22;12351;52.284;9.160;2022-12-13T20:14:07;-4.00;99.90
24207;DHT22;12351;52.284;9.160;2022-12-13T20:16:54;-3.90;99.90
24207;DHT22;12351;52.284;9.160;2022-12-13T20:19:42;-3.90;99.90
24207;DHT22;12351;52.284;9.160;2022-12-13T20:22:33;-4.00;99.90
24207;DHT22;12351;52.284;9.160;2022-12-13T20:25:22;-4.00;99.90
24207;DHT22;12351;52.284;9.160;2022-12-13T20:28:15;-4.00;99.90
24207;DHT22;12351;52.284;9.160;2022-12-13T20:31:06;-3.80;99.90
24207;DHT22;12351;52.284;9.160;2022-12-13T20:33:54;-3.80;99.90
24207;DHT22;12351;52.284;9.160;2022-12-13T20:36:46;-3.70;99.90
24207;DHT22;12351;52.284;9.160;2022-12-13T20:39:35;-3.50;99.90
24207;DHT22;12351;52.284;9.160;2022-12-13T20:42:26;-3.40;99.90
24207;DHT22;12351;52.284;9.160;2022-12-13T20:45:15;-3.10;99.90
24207;DHT22;12351;52.284;9.160;2022-12-13T20:48:05;-2.90;99.90